createdAt,value
2023-04-19T02:26:54.158Z,50.875885
2023-04-19T02:27:54.160Z,50.875538
2023-04-19T02:28:54.147Z,50.875507
2023-04-19T02:29:54.128Z,50.875648
2023-04-19T02:30:54.114Z,50.875633
2023-04-19T02:31:54.134Z,50.875668
2023-04-19T02:32:54.120Z,50.875347
2023-04-19T02:33:54.094Z,50.875225
2023-04-19T02:34:54.067Z,50.875130
2023-04-19T02:35:54.060Z,50.875210
2023-04-19T02:36:54.075Z,50.875237
2023-04-19T02:37:54.056Z,50.875290
2023-04-19T02:38:54.031Z,50.875286
2023-04-19T02:39:54.022Z,50.875187
2023-04-19T02:40:54.028Z,50.875240
2023-04-19T02:41:54.062Z,50.875320
2023-04-19T02:42:54.003Z,50.875320
2023-04-19T02:43:53.975Z,50.875256
2023-04-19T02:44:54.004Z,50.875347
2023-04-19T02:45:54.018Z,50.875717
2023-04-19T02:46:54.962Z,50.875656
2023-04-19T02:47:54.035Z,50.875462
2023-04-19T02:48:53.947Z,50.875301
2023-04-19T02:49:53.922Z,50.875336
2023-04-19T02:50:53.932Z,50.875328
2023-04-19T02:51:53.894Z,50.875385
2023-04-19T02:52:53.916Z,50.875168
2023-04-19T02:53:53.899Z,50.875286
2023-04-19T02:54:53.874Z,50.875378
2023-04-19T02:55:53.892Z,50.875450
2023-04-19T02:56:53.883Z,50.875507
2023-04-19T02:57:53.869Z,50.875385
2023-04-19T02:58:53.843Z,50.875343
2023-04-19T02:59:53.849Z,50.875664
2023-04-19T03:00:53.871Z,50.875622
2023-04-19T03:01:53.799Z,50.875622
2023-04-19T03:02:54.003Z,50.875546
2023-04-19T03:03:53.865Z,50.875641
2023-04-19T03:04:53.769Z,50.875511
2023-04-19T03:05:53.767Z,50.875237
2023-04-19T03:06:53.757Z,50.875233
2023-04-19T03:07:53.761Z,50.875320
2023-04-19T03:08:53.776Z,50.875324
2023-04-19T03:09:53.735Z,50.875488
2023-04-19T03:10:53.710Z,50.875389
2023-04-19T03:11:53.705Z,50.875378
2023-04-19T03:12:53.714Z,50.875324
2023-04-19T03:13:53.697Z,50.875393
2023-04-19T03:14:53.751Z,50.875362
2023-04-19T03:15:53.724Z,50.875359
2023-04-19T03:16:53.655Z,50.875393
2023-04-19T03:17:53.680Z,50.875439
2023-04-19T03:18:53.644Z,50.875431
2023-04-19T03:19:53.618Z,50.875469
2023-04-19T03:20:53.599Z,50.875435
2023-04-19T03:21:53.609Z,50.875355
2023-04-19T03:22:53.609Z,50.875443
2023-04-19T03:23:53.599Z,50.875309
2023-04-19T03:24:53.565Z,50.875240
2023-04-19T03:25:53.567Z,50.875263
2023-04-19T03:26:53.541Z,50.875256
2023-04-19T03:27:53.543Z,50.875408
2023-04-19T03:28:53.514Z,50.875389
2023-04-19T03:29:53.509Z,50.875359
2023-04-19T03:30:53.523Z,50.875443
2023-04-19T03:31:53.485Z,50.875301
2023-04-19T03:32:53.538Z,50.875439
2023-04-19T03:33:53.488Z,50.875526
2023-04-19T03:34:53.446Z,50.875534
2023-04-19T03:35:53.437Z,50.875336
2023-04-19T03:36:53.446Z,50.875336
2023-04-19T03:37:53.436Z,50.875336
2023-04-19T03:38:53.427Z,50.875336
2023-04-19T03:39:53.391Z,50.874596
2023-04-19T03:40:53.390Z,50.874634
2023-04-19T03:41:53.380Z,50.874741
2023-04-19T03:42:53.388Z,50.874874
2023-04-19T03:43:53.397Z,50.875057
2023-04-19T03:44:53.340Z,50.875057
2023-04-19T03:45:53.366Z,50.875057
2023-04-19T03:46:53.319Z,50.875057
2023-04-19T03:47:53.357Z,50.875057
2023-04-19T03:48:53.330Z,50.875057
2023-04-19T03:49:53.317Z,50.875057
2023-04-19T03:50:53.297Z,50.875057
2023-04-19T03:51:53.294Z,50.875057
2023-04-19T03:52:53.290Z,50.875057
2023-04-19T03:53:53.271Z,50.875057
2023-04-19T03:54:53.249Z,50.875057
2023-04-19T03:55:53.238Z,50.875057
2023-04-19T03:56:53.246Z,50.875057
2023-04-19T03:57:53.237Z,50.875057
2023-04-19T03:58:53.218Z,50.875057
2023-04-19T03:59:53.205Z,50.875057
2023-04-19T04:00:53.188Z,50.875057
2023-04-19T04:01:53.199Z,50.875057
2023-04-19T04:02:53.374Z,50.875057
2023-04-19T04:03:53.594Z,50.875057
2023-04-19T04:04:53.241Z,50.875057
2023-04-19T04:05:53.129Z,50.875057
2023-04-19T04:06:53.124Z,50.875057
2023-04-19T04:07:53.115Z,50.875057
2023-04-19T04:08:53.129Z,50.875057
2023-04-19T04:09:53.080Z,50.875057
2023-04-19T04:10:53.090Z,50.875057
2023-04-19T04:11:53.071Z,50.875057
2023-04-19T04:12:53.066Z,50.875057
2023-04-19T04:13:53.062Z,50.875057
2023-04-19T04:14:53.042Z,50.875057
2023-04-19T04:15:53.050Z,50.875057
2023-04-19T04:16:53.039Z,50.875057
2023-04-19T04:17:53.064Z,50.875057
2023-04-19T04:18:54.016Z,50.875057
2023-04-19T04:19:52.993Z,50.875057
2023-04-19T04:20:52.980Z,50.875057
2023-04-19T04:21:52.974Z,50.875057
2023-04-19T04:22:52.947Z,50.875057
2023-04-19T04:23:52.951Z,50.875057
2023-04-19T04:24:52.930Z,50.875057
2023-04-19T04:25:52.946Z,50.875057
2023-04-19T04:26:52.923Z,50.875057
2023-04-19T04:27:52.954Z,50.875057
2023-04-19T04:28:52.918Z,50.875057
2023-04-19T04:29:52.897Z,50.875057
2023-04-19T04:30:53.875Z,50.875057
2023-04-19T04:31:52.966Z,50.875057
2023-04-19T04:32:52.925Z,50.875057
2023-04-19T04:33:52.889Z,50.875057
2023-04-19T04:34:52.843Z,50.875057
2023-04-19T04:35:52.865Z,50.875057
2023-04-19T04:36:52.834Z,50.875057
2023-04-19T04:37:52.827Z,50.875057
2023-04-19T04:38:52.833Z,50.875057
2023-04-19T04:39:52.816Z,50.875057
2023-04-19T04:40:52.805Z,50.875057
2023-04-19T04:41:52.798Z,50.875057
2023-04-19T04:42:52.772Z,50.875057
2023-04-19T04:44:08.250Z,50.875057
2023-04-19T04:44:54.754Z,50.875057
2023-04-19T04:45:52.795Z,50.875057
2023-04-19T04:46:52.731Z,50.875057
2023-04-19T04:47:52.879Z,50.875057
2023-04-19T04:48:52.720Z,50.875057
2023-04-19T04:49:52.711Z,50.875057
2023-04-19T04:50:52.733Z,50.875057
2023-04-19T04:51:52.729Z,50.875057
2023-04-19T04:52:52.673Z,50.875057
2023-04-19T04:53:52.673Z,50.875057
2023-04-19T04:54:52.664Z,50.875057
2023-04-19T04:55:52.660Z,50.875057
2023-04-19T04:56:52.691Z,50.875057
2023-04-19T04:57:52.628Z,50.875057
2023-04-19T04:58:52.615Z,50.875057
2023-04-19T04:59:52.630Z,50.875057
2023-04-19T05:00:52.647Z,50.875057
2023-04-19T05:01:52.585Z,50.875057
2023-04-19T05:02:52.688Z,50.875057
2023-04-19T05:03:52.578Z,50.875057
2023-04-19T05:04:52.589Z,50.875057
2023-04-19T05:05:52.544Z,50.875057
2023-04-19T05:06:52.546Z,50.875057
2023-04-19T05:07:52.531Z,50.875057
2023-04-19T05:08:52.501Z,50.875057
2023-04-19T05:09:52.491Z,50.875057
2023-04-19T05:10:52.484Z,50.875057
2023-04-19T05:11:52.466Z,50.875057
2023-04-19T05:12:52.492Z,50.875057
2023-04-19T05:13:53.468Z,50.875057
2023-04-19T05:14:52.434Z,50.875057
2023-04-19T05:15:52.474Z,50.875057
2023-04-19T05:16:52.436Z,50.875057
2023-04-19T05:17:52.570Z,50.875057
2023-04-19T05:18:52.400Z,50.875057
2023-04-19T05:19:52.425Z,50.875057
2023-04-19T05:20:52.373Z,50.875057
2023-04-19T05:21:52.369Z,50.875057
2023-04-19T05:22:52.374Z,50.875057
2023-04-19T05:23:52.358Z,50.875057
2023-04-19T05:24:52.353Z,50.875057
2023-04-19T05:25:52.329Z,50.875057
2023-04-19T05:26:52.313Z,50.875057
2023-04-19T05:27:52.311Z,50.875057
2023-04-19T05:28:52.313Z,50.875057
2023-04-19T05:29:52.284Z,50.875057
2023-04-19T05:30:52.277Z,50.875057
2023-04-19T05:31:52.364Z,50.875057
2023-04-19T05:32:53.313Z,50.875057
2023-04-19T05:33:52.269Z,50.875057
2023-04-19T05:34:52.244Z,50.875057
2023-04-19T05:35:52.219Z,50.875057
2023-04-19T05:36:52.209Z,50.875057
2023-04-19T05:37:52.204Z,50.875057
2023-04-19T05:38:52.243Z,50.875057
2023-04-19T05:39:52.205Z,50.875057
2023-04-19T05:40:52.185Z,50.875057
2023-04-19T05:41:52.152Z,50.875057
2023-04-19T05:42:52.136Z,50.875057
2023-04-19T05:43:53.166Z,50.875057
2023-04-19T05:44:52.129Z,50.875057
2023-04-19T05:45:52.189Z,50.875057
2023-04-19T05:46:52.109Z,50.875057
2023-04-19T05:47:52.143Z,50.875057
2023-04-19T05:48:52.121Z,50.875057
2023-04-19T05:49:52.087Z,50.875057
2023-04-19T05:50:52.069Z,50.875057
2023-04-19T05:51:52.052Z,50.875057
2023-04-19T05:52:52.038Z,50.875057
2023-04-19T05:53:52.672Z,50.875057
2023-04-19T05:54:52.018Z,50.875057
2023-04-19T05:55:53.037Z,50.875057
2023-04-19T05:56:52.020Z,50.875057
2023-04-19T05:57:51.989Z,50.875057
2023-04-19T05:58:51.989Z,50.875057
2023-04-19T05:59:52.002Z,50.875057
2023-04-19T06:00:51.986Z,50.875057
2023-04-19T06:01:51.967Z,50.875057
2023-04-19T06:02:53.086Z,50.875057
2023-04-19T06:03:52.295Z,50.875057
2023-04-19T06:04:51.959Z,50.875057
2023-04-19T06:05:52.064Z,50.875057
2023-04-19T06:06:51.949Z,50.875057
2023-04-19T06:07:55.621Z,50.875057
2023-04-19T06:08:54.807Z,50.875057
2023-04-19T06:09:52.963Z,50.875057
2023-04-19T06:10:55.759Z,50.875057
2023-04-19T06:11:53.959Z,50.875057
2023-04-19T06:12:51.936Z,50.875057
2023-04-19T06:13:52.040Z,50.875057
2023-04-19T06:14:52.060Z,50.875057
2023-04-19T06:15:52.017Z,50.875057
2023-04-19T06:16:51.955Z,50.875057
2023-04-19T06:17:52.006Z,50.875057
2023-04-19T06:18:51.847Z,50.875057
2023-04-19T06:19:51.825Z,50.875057
2023-04-19T06:20:51.793Z,50.875057
2023-04-19T06:21:51.830Z,50.875057
2023-04-19T06:22:51.860Z,50.875057
2023-04-19T06:23:51.899Z,50.875057
2023-04-19T06:24:51.806Z,50.875057
2023-04-19T06:25:51.821Z,50.875057
2023-04-19T06:26:51.781Z,50.875057
2023-04-19T06:27:51.799Z,50.875057
2023-04-19T06:28:51.719Z,50.875057
2023-04-19T06:29:51.687Z,50.875057
2023-04-19T06:30:51.783Z,50.875057
2023-04-19T06:31:51.829Z,50.875057
2023-04-19T06:32:51.741Z,50.875057
2023-04-19T06:33:51.710Z,50.875057
2023-04-19T06:34:51.719Z,50.875057
2023-04-19T06:35:51.731Z,50.875057
2023-04-19T06:36:51.734Z,50.875057
2023-04-19T06:37:52.719Z,50.875057
2023-04-19T06:38:51.682Z,50.875057
2023-04-19T06:39:51.719Z,50.875057
2023-04-19T06:40:51.690Z,50.875057
2023-04-19T06:41:51.866Z,50.875057
2023-04-19T06:42:51.742Z,50.875057
2023-04-19T06:43:51.616Z,50.875057
2023-04-19T06:44:51.691Z,50.875057
2023-04-19T06:45:51.950Z,50.875057
2023-04-19T06:46:51.673Z,50.875057
2023-04-19T06:47:51.590Z,50.875057
2023-04-19T06:48:51.485Z,50.875057
2023-04-19T06:49:51.520Z,50.875057
2023-04-19T06:50:51.444Z,50.875057
2023-04-19T06:51:51.448Z,50.875057
2023-04-19T06:52:51.416Z,50.875057
2023-04-19T06:53:52.401Z,50.875057
2023-04-19T06:54:51.416Z,50.875057
2023-04-19T06:55:51.385Z,50.875057
2023-04-19T06:56:51.502Z,50.875057
2023-04-19T06:57:51.467Z,50.875057
2023-04-19T06:58:52.955Z,50.875057
2023-04-19T06:59:51.507Z,50.875057
2023-04-19T07:00:51.599Z,50.875057
2023-04-19T07:01:51.612Z,50.875057
2023-04-19T07:02:51.462Z,50.875057
2023-04-19T07:03:51.552Z,50.875057
2023-04-19T07:04:51.488Z,50.875057
2023-04-19T07:05:51.395Z,50.875057
2023-04-19T07:06:52.146Z,50.875057
2023-04-19T07:07:51.329Z,50.875057
2023-04-19T07:08:51.472Z,50.875057
2023-04-19T07:09:51.855Z,50.875057
2023-04-19T07:10:51.708Z,50.875057
2023-04-19T07:11:51.417Z,50.875057
2023-04-19T07:12:51.305Z,50.875057
2023-04-19T07:13:51.359Z,50.875057
2023-04-19T07:14:51.485Z,50.875057
2023-04-19T07:15:51.380Z,50.875057
2023-04-19T07:16:52.699Z,50.875057
2023-04-19T07:17:51.305Z,50.875057
2023-04-19T07:18:51.265Z,50.875057
2023-04-19T07:19:51.309Z,50.875057
2023-04-19T07:20:51.299Z,50.875057
2023-04-19T07:21:51.254Z,50.875057
2023-04-19T07:22:51.308Z,50.875057
2023-04-19T07:23:51.633Z,50.875057
2023-04-19T07:24:51.344Z,50.875057
2023-04-19T07:25:51.135Z,50.875057
2023-04-19T07:26:51.178Z,50.875057
2023-04-19T07:27:52.278Z,50.875057
2023-04-19T07:28:51.120Z,50.875057
2023-04-19T07:29:51.071Z,50.875057
2023-04-19T07:30:51.146Z,50.875057
2023-04-19T07:31:51.120Z,50.875057
2023-04-19T07:32:52.095Z,50.875057
2023-04-19T07:33:51.099Z,50.875057
2023-04-19T07:34:51.129Z,50.875057
2023-04-19T07:35:51.213Z,50.875057
2023-04-19T07:36:51.067Z,50.875057
2023-04-19T07:37:51.025Z,50.875057
2023-04-19T07:38:50.990Z,50.875057
2023-04-19T07:39:51.018Z,50.875057
2023-04-19T07:40:50.992Z,50.875057
2023-04-19T07:41:50.969Z,50.875057
2023-04-19T07:42:51.830Z,50.875057
2023-04-19T07:43:50.909Z,50.875057
2023-04-19T07:44:50.890Z,50.875057
2023-04-19T07:45:51.920Z,50.875057
2023-04-19T07:46:51.064Z,50.875057
2023-04-19T07:47:50.905Z,50.875057
2023-04-19T07:48:51.951Z,50.875057
2023-04-19T07:49:51.280Z,50.875057
2023-04-19T07:50:58.752Z,50.875057
2023-04-19T07:51:50.940Z,50.875057
2023-04-19T07:52:50.870Z,50.875057
2023-04-19T07:53:50.820Z,50.875057
2023-04-19T07:54:50.836Z,50.875057
2023-04-19T07:55:50.876Z,50.875057
2023-04-19T07:56:50.816Z,50.875057
2023-04-19T07:57:50.790Z,50.875057
2023-04-19T07:59:04.406Z,50.875057
2023-04-19T07:59:52.784Z,50.875057
2023-04-19T08:00:50.902Z,50.875057
2023-04-19T08:01:50.895Z,50.875057
2023-04-19T08:02:50.944Z,50.875057
2023-04-19T08:03:51.005Z,50.875057
2023-04-19T08:04:51.158Z,50.875057
2023-04-19T08:05:51.000Z,50.875057
2023-04-19T08:06:50.733Z,50.875057
2023-04-19T08:07:50.777Z,50.875057
2023-04-19T08:08:50.783Z,50.875057
2023-04-19T08:09:50.889Z,50.875057
2023-04-19T08:10:50.752Z,50.875057
2023-04-19T08:11:50.718Z,50.875057
2023-04-19T08:13:03.699Z,50.875057
2023-04-19T08:14:04.419Z,50.875057
2023-04-19T08:15:02.547Z,50.875057
2023-04-19T08:17:51.684Z,50.875057
2023-04-19T08:18:50.922Z,50.875057
2023-04-19T08:19:50.566Z,50.875057
2023-04-19T08:20:50.602Z,50.875057
2023-04-19T08:21:50.575Z,50.875057
2023-04-19T08:22:50.783Z,50.875057
2023-04-19T08:23:52.624Z,50.875057
2023-04-19T08:24:50.507Z,50.875057
2023-04-19T08:25:50.547Z,50.875057
2023-04-19T08:26:50.540Z,50.875057
2023-04-19T08:27:50.589Z,50.875057
2023-04-19T08:28:50.713Z,50.875057
2023-04-19T08:29:50.569Z,50.875057
2023-04-19T08:30:50.607Z,50.875057
2023-04-19T08:31:50.572Z,50.875057
2023-04-19T08:32:50.654Z,50.875057
2023-04-19T08:33:50.438Z,50.875057
2023-04-19T08:34:50.509Z,50.875057
2023-04-19T08:35:50.490Z,50.875057
2023-04-19T08:36:56.189Z,50.875057
2023-04-19T08:37:52.396Z,50.875057
2023-04-19T08:39:01.973Z,50.875057
2023-04-19T08:39:52.445Z,50.875057
2023-04-19T08:40:50.308Z,50.875057
2023-04-19T08:41:59.050Z,50.875057
2023-04-19T08:42:52.300Z,50.875057
2023-04-19T08:43:50.296Z,50.875057
2023-04-19T08:45:06.343Z,50.875057
2023-04-19T08:45:52.337Z,50.875057
2023-04-19T08:46:50.273Z,50.875057
2023-04-19T08:47:59.806Z,50.875057
2023-04-19T08:48:52.577Z,50.875057
2023-04-19T08:50:03.802Z,50.875057
2023-04-19T08:51:03.455Z,50.875057
2023-04-19T08:51:52.353Z,50.875057
2023-04-19T08:52:56.004Z,50.875057
2023-04-19T08:53:52.209Z,50.875057
2023-04-19T08:54:50.190Z,50.875057
2023-04-19T08:56:08.844Z,50.875057
2023-04-19T08:56:52.335Z,50.875057
2023-04-19T08:57:50.142Z,50.875057
2023-04-19T08:59:51.227Z,50.875057
2023-04-19T09:00:50.174Z,50.875057
2023-04-19T09:01:50.115Z,50.875057
2023-04-19T09:02:50.395Z,50.875057
2023-04-19T09:04:02.282Z,50.875057
2023-04-19T09:04:52.446Z,50.875057
2023-04-19T09:05:50.443Z,50.875057
2023-04-19T09:06:50.092Z,50.875057
2023-04-19T09:07:50.138Z,50.875057
2023-04-19T09:08:50.008Z,50.875057
2023-04-19T09:10:00.064Z,50.875057
2023-04-19T09:10:51.960Z,50.875057
2023-04-19T09:11:50.993Z,50.875057
2023-04-19T09:12:50.066Z,50.875057
2023-04-19T09:13:51.276Z,50.875057
2023-04-19T09:15:01.306Z,50.875057
2023-04-19T09:15:51.900Z,50.875057
2023-04-19T09:16:49.934Z,50.875057
2023-04-19T09:17:49.992Z,50.875057
2023-04-19T09:18:59.985Z,50.875057
2023-04-19T09:19:51.886Z,50.875057
2023-04-19T09:20:49.957Z,50.875057
2023-04-19T09:21:49.897Z,50.875057
2023-04-19T09:22:49.897Z,50.875057
2023-04-19T09:23:49.911Z,50.875057
2023-04-19T09:26:15.202Z,50.875057
2023-04-19T09:26:51.760Z,50.875057
2023-04-19T09:27:49.844Z,50.875057
2023-04-19T09:28:49.881Z,50.875057
2023-04-19T09:29:49.939Z,50.875057
2023-04-19T09:31:03.227Z,50.875057
2023-04-19T09:31:52.367Z,50.875057
2023-04-19T09:32:50.929Z,50.875057
2023-04-19T09:33:49.839Z,50.875057
2023-04-19T09:34:49.773Z,50.875057
2023-04-19T09:35:49.734Z,50.875057
2023-04-19T09:36:54.564Z,50.875057
2023-04-19T09:38:04.718Z,50.875057
2023-04-19T09:38:51.746Z,50.875057
2023-04-19T09:39:49.753Z,50.875057
2023-04-19T09:40:49.684Z,50.875057
2023-04-19T09:41:49.664Z,50.875057
2023-04-19T09:45:16.895Z,50.875057
2023-04-19T09:45:51.604Z,50.875057
2023-04-19T09:46:52.374Z,50.875057
2023-04-19T09:47:49.609Z,50.875057
2023-04-19T09:48:49.657Z,50.875057
2023-04-19T09:49:49.931Z,50.875057
2023-04-19T09:50:56.549Z,50.875057
2023-04-19T09:51:51.545Z,50.875057
2023-04-19T09:52:49.756Z,50.875057
2023-04-19T09:53:49.571Z,50.875057
2023-04-19T09:54:49.596Z,50.875057
2023-04-19T09:56:00.412Z,50.875057
2023-04-19T09:56:51.626Z,50.875057
2023-04-19T09:57:49.576Z,50.875057
2023-04-19T09:58:52.814Z,50.875057
2023-04-19T09:59:51.501Z,50.875057
2023-04-19T10:00:53.089Z,50.875057
2023-04-19T10:01:51.604Z,50.875057
2023-04-19T10:02:51.950Z,50.875057
2023-04-19T10:03:51.578Z,50.875057
2023-04-19T10:05:03.264Z,50.875057
2023-04-19T10:05:51.521Z,50.875057
2023-04-19T10:07:13.925Z,50.875057
2023-04-19T10:07:51.462Z,50.875057
2023-04-19T10:08:49.480Z,50.875057
2023-04-19T10:09:53.612Z,50.875057
2023-04-19T10:10:51.485Z,50.875057
2023-04-19T10:11:51.213Z,50.875057
2023-04-19T10:13:07.411Z,50.875057
2023-04-19T10:13:51.400Z,50.875057
2023-04-19T10:14:49.478Z,50.875057
2023-04-19T10:15:52.747Z,50.875057
2023-04-19T10:16:51.378Z,50.875057
2023-04-19T10:17:49.389Z,50.875057
2023-04-19T10:18:49.300Z,50.875057
2023-04-19T10:19:49.335Z,50.875057
2023-04-19T10:20:49.340Z,50.875057
2023-04-19T10:21:49.324Z,50.875057
2023-04-19T10:22:49.403Z,50.875057
2023-04-19T10:23:49.336Z,50.875057
2023-04-19T10:24:49.406Z,50.875057
2023-04-19T10:25:50.056Z,50.875057
2023-04-19T10:26:49.316Z,50.875057
2023-04-19T10:27:49.277Z,50.875057
2023-04-19T10:28:49.344Z,50.875057
2023-04-19T10:29:49.184Z,50.875057
2023-04-19T10:30:49.256Z,50.875057
2023-04-19T10:31:49.233Z,50.875057
2023-04-19T10:32:49.236Z,50.875057
2023-04-19T10:33:49.255Z,50.875057
2023-04-19T10:34:49.231Z,50.875057
2023-04-19T10:35:49.292Z,50.875057
2023-04-19T10:36:49.197Z,50.875057
2023-04-19T10:37:49.123Z,50.875057
2023-04-19T10:38:49.134Z,50.875057
2023-04-19T10:39:49.159Z,50.875057
2023-04-19T10:40:49.152Z,50.875057
2023-04-19T10:41:49.102Z,50.875057
2023-04-19T10:42:49.053Z,50.875057
2023-04-19T10:43:49.039Z,50.875057
2023-04-19T10:44:49.052Z,50.875057
2023-04-19T10:45:49.052Z,50.875057
2023-04-19T10:46:48.960Z,50.875057
2023-04-19T10:47:48.996Z,50.875057
2023-04-19T10:48:48.990Z,50.875057
2023-04-19T10:49:48.972Z,50.875057
2023-04-19T10:50:48.971Z,50.875057
2023-04-19T10:51:49.006Z,50.875057
2023-04-19T10:52:48.950Z,50.875057
2023-04-19T10:53:49.015Z,50.875057
2023-04-19T10:54:48.913Z,50.875057
2023-04-19T10:55:48.963Z,50.875057
2023-04-19T10:56:48.960Z,50.875057
2023-04-19T10:57:48.877Z,50.875408
2023-04-19T10:58:48.976Z,50.875370
2023-04-19T10:59:48.846Z,50.875370
2023-04-19T11:00:48.823Z,50.875397
2023-04-19T11:01:48.879Z,50.875397
2023-04-19T11:02:48.939Z,50.875366
2023-04-19T11:03:48.965Z,50.875286
2023-04-19T11:04:48.894Z,50.875286
2023-04-19T11:05:48.767Z,50.875263
2023-04-19T11:06:48.775Z,50.875443
2023-04-19T11:07:48.766Z,50.875359
2023-04-19T11:08:48.734Z,50.875343
2023-04-19T11:09:48.755Z,50.875267
2023-04-19T11:10:48.751Z,50.875359
2023-04-19T11:11:48.771Z,50.875374
2023-04-19T11:12:48.736Z,50.875439
2023-04-19T11:13:48.768Z,50.875450
2023-04-19T11:14:48.742Z,50.875473
2023-04-19T11:15:48.746Z,50.875362
2023-04-19T11:16:48.801Z,50.875454
2023-04-19T11:17:52.871Z,50.875481
2023-04-19T11:18:49.643Z,50.875420
2023-04-19T11:19:48.677Z,50.875454
2023-04-19T11:20:48.673Z,50.875484
2023-04-19T11:21:48.718Z,50.875362
2023-04-19T11:22:48.630Z,50.875496
2023-04-19T11:23:49.127Z,50.875462
2023-04-19T11:24:48.578Z,50.875462
2023-04-19T11:25:48.592Z,50.875393
2023-04-19T11:26:48.659Z,50.875454
2023-04-19T11:27:48.560Z,50.875370
2023-04-19T11:28:48.654Z,50.875458
2023-04-19T11:29:48.566Z,50.875381
2023-04-19T11:30:48.556Z,50.875378
2023-04-19T11:31:48.618Z,50.875507
2023-04-19T11:32:48.801Z,50.875538
2023-04-19T11:33:48.512Z,50.875473
2023-04-19T11:34:48.468Z,50.875473
2023-04-19T11:35:48.485Z,50.875435
2023-04-19T11:36:48.467Z,50.875408
2023-04-19T11:37:48.444Z,50.875286
2023-04-19T11:38:48.428Z,50.875298
2023-04-19T11:39:48.432Z,50.875446
2023-04-19T11:40:48.426Z,50.875237
2023-04-19T11:41:48.421Z,50.875137
2023-04-19T11:42:48.389Z,50.875401
2023-04-19T11:43:48.433Z,50.875446
2023-04-19T11:45:03.502Z,50.875362
2023-04-19T11:45:48.372Z,50.875305
2023-04-19T11:46:48.402Z,50.875374
2023-04-19T11:47:48.393Z,50.875435
2023-04-19T11:48:48.375Z,50.875500
2023-04-19T13:29:14.495Z,50.875801
2023-04-19T13:30:14.464Z,50.875484
2023-04-19T13:31:14.506Z,50.875301
2023-04-19T13:32:14.470Z,50.875282
2023-04-19T13:33:14.519Z,50.875145
2023-04-19T13:34:14.648Z,50.875397
2023-04-19T13:35:14.988Z,50.875359
2023-04-19T13:36:14.422Z,50.875416
2023-04-19T13:37:14.432Z,50.875443
2023-04-19T13:38:14.428Z,50.875362
2023-04-19T13:39:14.441Z,50.875385
2023-04-19T13:40:19.280Z,50.875492
2023-04-19T13:41:16.362Z,50.875420
2023-04-19T13:42:14.377Z,50.875317
2023-04-19T13:43:14.460Z,50.875320
2023-04-19T13:44:22.724Z,50.875290
2023-04-19T13:45:14.435Z,50.875343
2023-04-19T13:46:14.477Z,50.875271
2023-04-19T13:47:14.455Z,50.875290
2023-04-19T13:48:14.579Z,50.875374
2023-04-19T13:49:14.580Z,50.875408
2023-04-19T13:50:14.474Z,50.875404
2023-04-19T13:51:14.377Z,50.875359
2023-04-19T13:52:14.338Z,50.875397
2023-04-19T13:53:14.561Z,50.875381
2023-04-19T13:54:14.852Z,50.875267
2023-04-19T13:55:14.343Z,50.875374
2023-04-19T13:56:14.261Z,50.875145
2023-04-19T13:57:14.366Z,50.875145
2023-04-19T13:58:14.417Z,50.875328
2023-04-19T13:59:14.316Z,50.875225
2023-04-19T14:00:14.349Z,50.875328
2023-04-19T14:01:14.575Z,50.875256
2023-04-19T14:02:14.412Z,50.875340
2023-04-19T14:03:14.611Z,50.875359
2023-04-19T14:04:14.580Z,50.875298
2023-04-19T14:05:14.270Z,50.875343
2023-04-19T14:06:14.277Z,50.875328
2023-04-19T14:07:14.272Z,50.875355
2023-04-19T14:08:14.333Z,50.875397
2023-04-19T14:09:14.244Z,50.875355
2023-04-19T14:10:14.232Z,50.875362
2023-04-19T14:11:14.146Z,50.875328
2023-04-19T14:12:14.236Z,50.875389
2023-04-19T14:13:14.207Z,50.875355
2023-04-19T14:14:14.382Z,50.875412
2023-04-19T14:15:15.152Z,50.875412
2023-04-19T14:16:14.176Z,50.875397
2023-04-19T14:17:14.208Z,50.875328
2023-04-19T14:18:14.244Z,50.875187
2023-04-19T14:19:14.122Z,50.875126
2023-04-19T14:20:14.109Z,50.875317
2023-04-19T14:21:14.086Z,50.875278
2023-04-19T14:22:14.061Z,50.875351
2023-04-19T14:23:14.025Z,50.875317
2023-04-19T14:24:15.888Z,50.875347
2023-04-19T14:25:14.013Z,50.875332
2023-04-19T14:26:13.996Z,50.875298
2023-04-19T14:27:14.024Z,50.875118
